createdAt,value
2023-03-27T00:01:11.965Z,0.90
2023-03-27T00:03:38.593Z,0.80
2023-03-27T00:06:09.398Z,0.80
2023-03-27T00:08:39.425Z,1.17
2023-03-27T00:11:08.015Z,0.90
2023-03-27T00:13:35.133Z,0.90
2023-03-27T00:16:02.868Z,0.80
2023-03-27T00:18:29.791Z,0.97
2023-03-27T00:20:59.249Z,0.80
2023-03-27T00:23:26.032Z,0.97
2023-03-27T00:25:54.292Z,1.00
2023-03-27T00:28:20.907Z,0.97
2023-03-27T00:30:48.459Z,1.10
2023-03-27T00:33:15.007Z,1.20
2023-03-27T00:35:45.065Z,0.80
2023-03-27T00:38:11.629Z,1.07
2023-03-27T00:40:38.779Z,0.70
2023-03-27T00:43:19.084Z,0.60
2023-03-27T00:45:47.146Z,0.83
2023-03-27T00:48:14.454Z,0.53
2023-03-27T00:50:43.052Z,0.50
2023-03-27T00:53:14.499Z,0.67
2023-03-27T00:55:42.400Z,0.60
2023-03-27T00:58:20.602Z,0.70
2023-03-27T01:00:49.207Z,0.80
2023-03-27T01:03:16.095Z,0.83
2023-03-27T01:05:43.095Z,0.70
2023-03-27T01:08:09.851Z,0.60
2023-03-27T01:10:42.042Z,0.63
2023-03-27T01:13:20.866Z,0.77
2023-03-27T01:15:53.322Z,0.70
2023-03-27T01:18:38.597Z,1.00
2023-03-27T01:25:04.664Z,0.87
2023-03-27T01:27:49.783Z,0.77
2023-03-27T01:30:19.374Z,0.90
2023-03-27T01:32:46.038Z,0.90
2023-03-27T01:35:12.509Z,0.90
2023-03-27T01:37:47.942Z,1.03
2023-03-27T01:40:25.326Z,0.77
2023-03-27T01:42:59.992Z,0.80
2023-03-27T01:45:29.493Z,0.70
2023-03-27T01:47:56.115Z,0.67
2023-03-27T01:50:33.258Z,0.67
2023-03-27T01:53:02.241Z,0.77
2023-03-27T01:55:31.523Z,0.70
2023-03-27T01:58:03.574Z,0.97
2023-03-27T02:00:52.006Z,0.50
2023-03-27T02:03:22.815Z,0.60
2023-03-27T02:06:04.374Z,1.10
2023-03-27T02:08:34.066Z,0.70
2023-03-27T02:11:00.592Z,0.80
2023-03-27T02:13:29.307Z,0.73
2023-03-27T02:15:58.430Z,0.80
2023-03-27T02:18:33.772Z,0.80
2023-03-27T02:21:09.318Z,0.80
2023-03-27T02:23:38.633Z,1.10
2023-03-27T02:26:05.139Z,1.00
2023-03-27T02:28:46.703Z,0.77
2023-03-27T02:31:35.143Z,0.80
2023-03-27T02:34:14.047Z,1.00
2023-03-27T02:36:41.546Z,1.00
2023-03-27T02:39:21.144Z,1.10
2023-03-27T02:41:47.537Z,1.40
2023-03-27T02:44:29.610Z,1.20
2023-03-27T02:47:07.407Z,1.37
2023-03-27T02:49:37.305Z,1.20
2023-03-27T02:52:07.750Z,1.30
2023-03-27T02:54:43.835Z,1.20
2023-03-27T02:57:12.756Z,1.17
2023-03-27T02:59:42.504Z,1.20
2023-03-27T03:05:37.235Z,0.90
2023-03-27T03:08:04.305Z,1.27
2023-03-27T03:10:31.259Z,1.10
2023-03-27T03:12:57.770Z,1.40
2023-03-27T03:15:24.280Z,1.60
2023-03-27T03:17:50.815Z,1.63
2023-03-27T03:20:17.684Z,1.60
2023-03-27T03:22:44.333Z,1.40
2023-03-27T03:25:10.843Z,1.20
2023-03-27T03:27:39.066Z,1.30
2023-03-27T03:30:05.884Z,1.47
2023-03-27T03:32:34.076Z,1.70
2023-03-27T03:35:01.813Z,2.00
2023-03-27T03:37:28.782Z,2.60
2023-03-27T03:39:55.850Z,2.10
2023-03-27T03:42:23.780Z,1.40
2023-03-27T03:44:50.907Z,1.70
2023-03-27T03:47:17.439Z,1.60
2023-03-27T03:49:43.924Z,1.37
2023-03-27T03:52:10.518Z,1.63
2023-03-27T03:54:38.810Z,1.60
2023-03-27T03:57:05.604Z,1.40
2023-03-27T03:59:32.356Z,1.57
2023-03-27T04:01:59.013Z,1.50
2023-03-27T04:04:25.567Z,1.40
2023-03-27T04:06:53.059Z,1.70
2023-03-27T04:09:19.794Z,1.83
2023-03-27T04:11:47.081Z,2.67
2023-03-27T04:14:13.650Z,2.13
2023-03-27T04:16:40.312Z,2.30
2023-03-27T04:19:07.213Z,2.37
2023-03-27T04:21:33.662Z,2.57
2023-03-27T04:24:02.791Z,2.27
2023-03-27T04:26:29.767Z,1.90
2023-03-27T04:28:56.441Z,2.20
2023-03-27T04:31:22.938Z,1.90
2023-03-27T04:33:52.489Z,1.70
2023-03-27T04:36:19.561Z,1.90
2023-03-27T04:38:48.055Z,2.10
2023-03-27T04:41:14.751Z,1.90
2023-03-27T04:43:41.914Z,2.10
2023-03-27T04:46:09.055Z,2.40
2023-03-27T04:49:06.472Z,2.20
2023-03-27T04:51:32.966Z,1.63
2023-03-27T04:53:59.411Z,1.70
2023-03-27T04:56:25.937Z,1.90
2023-03-27T04:58:52.401Z,2.60
2023-03-27T05:05:19.463Z,3.20
2023-03-27T05:07:46.413Z,2.87
2023-03-27T05:10:13.087Z,3.00
2023-03-27T05:12:44.475Z,4.80
2023-03-27T05:15:32.409Z,5.00
2023-03-27T05:17:59.083Z,8.20
2023-03-27T05:20:25.974Z,7.67
2023-03-27T05:22:53.566Z,6.30
2023-03-27T05:25:20.258Z,5.53
2023-03-27T05:27:47.301Z,4.97
2023-03-27T05:30:14.873Z,5.60
2023-03-27T05:32:43.796Z,3.97
2023-03-27T05:35:11.346Z,3.37
2023-03-27T05:37:38.589Z,3.40
2023-03-27T05:40:06.052Z,4.17
2023-03-27T05:42:48.508Z,4.43
2023-03-27T05:45:15.538Z,4.03
2023-03-27T05:47:46.332Z,3.50
2023-03-27T05:50:13.115Z,3.20
2023-03-27T05:52:39.648Z,2.87
2023-03-27T05:55:06.784Z,2.43
2023-03-27T05:57:33.259Z,2.73
2023-03-27T06:00:00.267Z,2.00
2023-03-27T06:02:27.813Z,1.70
2023-03-27T06:05:02.120Z,2.10
2023-03-27T06:07:30.373Z,2.50
2023-03-27T06:09:57.181Z,2.70
2023-03-27T06:16:08.086Z,1.83
2023-03-27T06:18:43.891Z,1.97
2023-03-27T06:21:10.489Z,3.07
2023-03-27T06:23:36.997Z,2.00
2023-03-27T06:26:03.770Z,2.80
2023-03-27T06:28:30.726Z,1.50
2023-03-27T06:30:57.786Z,1.90
2023-03-27T06:33:27.531Z,1.93
2023-03-27T06:36:00.956Z,1.93
2023-03-27T06:38:33.072Z,1.30
2023-03-27T06:41:00.070Z,1.50
2023-03-27T06:43:26.763Z,1.40
2023-03-27T06:45:53.520Z,1.33
2023-03-27T06:48:21.991Z,1.80
2023-03-27T06:50:58.405Z,1.90
2023-03-27T06:53:27.921Z,1.60
2023-03-27T06:55:56.048Z,1.70
2023-03-27T06:58:22.704Z,1.73
2023-03-27T07:00:49.738Z,1.70
2023-03-27T07:03:17.897Z,1.50
2023-03-27T07:05:44.752Z,1.80
2023-03-27T07:08:22.527Z,1.20
2023-03-27T07:11:00.014Z,1.10
2023-03-27T07:13:34.604Z,0.90
2023-03-27T07:16:01.105Z,1.17
2023-03-27T07:18:27.677Z,2.37
2023-03-27T07:20:54.298Z,1.40
2023-03-27T07:23:21.002Z,1.33
2023-03-27T07:25:50.002Z,1.20
2023-03-27T07:28:18.497Z,1.03
2023-03-27T07:30:45.355Z,1.03
2023-03-27T07:33:12.617Z,1.40
2023-03-27T07:35:45.858Z,1.50
2023-03-27T07:38:12.851Z,1.50
2023-03-27T07:40:40.823Z,1.40
2023-03-27T07:43:07.669Z,1.10
2023-03-27T07:45:34.705Z,1.00
2023-03-27T07:48:05.065Z,1.10
2023-03-27T07:50:31.676Z,1.00
2023-03-27T07:52:58.284Z,0.90
2023-03-27T07:55:29.550Z,1.00
2023-03-27T07:58:01.490Z,1.30
2023-03-27T08:00:31.231Z,1.00
2023-03-27T08:03:08.480Z,1.07
2023-03-27T08:05:35.837Z,1.00
2023-03-27T08:08:02.541Z,1.07
2023-03-27T08:10:29.031Z,1.30
2023-03-27T08:12:55.665Z,4.37
2023-03-27T08:15:25.110Z,1.10
2023-03-27T08:17:55.162Z,1.23
2023-03-27T08:20:23.178Z,1.10
2023-03-27T08:22:53.356Z,1.33
2023-03-27T08:25:22.489Z,1.33
2023-03-27T08:27:49.322Z,1.30
2023-03-27T08:30:17.026Z,1.30
2023-03-27T08:32:44.112Z,1.13
2023-03-27T08:35:11.088Z,1.50
2023-03-27T08:37:37.742Z,1.73
2023-03-27T08:40:08.975Z,1.30
2023-03-27T08:42:38.261Z,1.20
2023-03-27T08:45:09.849Z,1.33
2023-03-27T08:47:39.780Z,1.60
2023-03-27T08:50:12.415Z,1.20
2023-03-27T08:52:39.949Z,1.30
2023-03-27T08:55:37.458Z,1.23
2023-03-27T08:58:04.089Z,1.20
2023-03-27T09:00:33.584Z,1.10
2023-03-27T09:03:13.586Z,1.23
2023-03-27T09:05:40.637Z,2.93
2023-03-27T09:08:27.939Z,2.30
2023-03-27T09:11:01.764Z,2.20
2023-03-27T09:13:48.527Z,2.10
2023-03-27T09:16:25.476Z,3.00
2023-03-27T09:19:10.973Z,1.30
2023-03-27T09:21:40.704Z,1.27
2023-03-27T09:24:11.617Z,1.30
2023-03-27T09:26:38.099Z,2.60
2023-03-27T09:29:31.333Z,1.30
2023-03-27T09:31:58.326Z,0.60
2023-03-27T09:34:24.905Z,0.90
2023-03-27T09:36:51.565Z,0.70
2023-03-27T09:39:21.969Z,0.80
2023-03-27T09:41:53.916Z,0.70
2023-03-27T09:44:37.764Z,1.00
2023-03-27T09:47:06.597Z,0.80
2023-03-27T09:49:34.370Z,0.83
2023-03-27T09:52:02.583Z,0.97
2023-03-27T09:54:29.150Z,1.23
2023-03-27T09:56:58.618Z,1.00
2023-03-27T09:59:25.228Z,0.90
2023-03-27T10:01:53.289Z,1.20
2023-03-27T10:04:21.987Z,0.90
2023-03-27T10:07:07.013Z,0.90
2023-03-27T10:13:16.682Z,0.50
2023-03-27T10:15:43.228Z,0.80
2023-03-27T10:18:27.514Z,0.80
2023-03-27T10:20:55.673Z,1.00
2023-03-27T10:23:29.929Z,1.03
2023-03-27T10:26:00.718Z,1.20
2023-03-27T10:28:28.536Z,0.90
2023-03-27T10:31:05.084Z,0.90
2023-03-27T10:33:36.736Z,0.80
2023-03-27T10:36:04.757Z,1.40
2023-03-27T10:38:32.185Z,1.30
2023-03-27T10:40:59.246Z,1.10
2023-03-27T10:43:44.174Z,1.30
2023-03-27T10:46:15.722Z,0.90
2023-03-27T10:48:44.963Z,1.50
2023-03-27T10:51:21.484Z,2.00
2023-03-27T10:53:53.463Z,1.97
2023-03-27T10:56:22.655Z,1.10
2023-03-27T10:58:56.035Z,1.83
2023-03-27T11:01:32.283Z,1.80
2023-03-27T11:04:05.078Z,1.77
2023-03-27T11:06:34.133Z,0.90
2023-03-27T11:09:06.634Z,1.10
2023-03-27T11:11:36.720Z,0.93
2023-03-27T11:14:05.809Z,0.93
2023-03-27T11:16:32.330Z,1.07
2023-03-27T11:19:01.565Z,0.70
2023-03-27T11:21:48.358Z,0.90
2023-03-27T11:24:38.449Z,0.80
2023-03-27T11:27:14.346Z,1.07
2023-03-27T11:29:53.815Z,1.00
2023-03-27T11:36:06.792Z,1.20
2023-03-27T11:38:36.553Z,1.10
2023-03-27T11:41:03.120Z,1.43
2023-03-27T11:43:29.712Z,1.40
2023-03-27T11:45:57.069Z,1.30
2023-03-27T11:48:33.113Z,1.00
2023-03-27T11:51:04.672Z,1.07
2023-03-27T11:53:36.846Z,1.10
2023-03-27T11:56:15.250Z,1.67
2023-03-27T11:58:51.129Z,2.03
2023-03-27T12:01:38.243Z,1.10
2023-03-27T12:04:11.574Z,1.30
2023-03-27T12:06:41.580Z,1.40
2023-03-27T12:09:08.002Z,1.30
2023-03-27T12:11:38.114Z,1.17
2023-03-27T12:14:40.414Z,1.60
2023-03-27T12:17:26.494Z,0.90
2023-03-27T12:19:53.169Z,1.10
2023-03-27T12:22:43.629Z,0.93
2023-03-27T12:25:28.220Z,0.40
2023-03-27T12:28:23.194Z,0.93
2023-03-27T12:31:28.724Z,0.80
2023-03-27T12:34:02.374Z,1.20
2023-03-27T12:36:32.066Z,1.00
2023-03-27T12:38:59.316Z,1.03
2023-03-27T12:41:29.450Z,1.10
2023-03-27T12:43:57.434Z,0.93
2023-03-27T12:46:24.143Z,2.10
2023-03-27T12:48:54.637Z,1.77
2023-03-27T12:51:37.612Z,1.70
2023-03-27T12:54:13.302Z,1.47
2023-03-27T12:56:40.043Z,1.10
2023-03-27T12:59:20.438Z,1.10
2023-03-27T13:01:53.254Z,0.47
2023-03-27T13:04:31.974Z,0.90
2023-03-27T13:07:22.213Z,1.00
2023-03-27T13:09:52.913Z,1.40
2023-03-27T13:12:25.693Z,1.43
2023-03-27T13:15:11.534Z,1.30
2023-03-27T13:17:41.724Z,1.00
2023-03-27T13:20:17.073Z,1.73
2023-03-27T13:22:55.516Z,0.90
2023-03-27T13:25:29.784Z,1.57
2023-03-27T13:28:14.797Z,1.97
2023-03-27T13:30:44.020Z,1.10
2023-03-27T13:33:13.196Z,1.13
2023-03-27T13:35:41.479Z,0.70
2023-03-27T13:38:10.386Z,0.70
2023-03-27T13:40:38.812Z,1.00
2023-03-27T13:43:17.299Z,1.10
2023-03-27T13:45:48.778Z,1.53
2023-03-27T13:48:33.747Z,1.10
2023-03-27T13:51:18.915Z,1.07
2023-03-27T13:54:04.229Z,1.10
2023-03-27T13:56:30.655Z,1.30
2023-03-27T13:59:16.042Z,0.90
2023-03-27T14:01:42.604Z,0.50
2023-03-27T14:04:17.730Z,0.60
2023-03-27T14:07:02.573Z,0.67
2023-03-27T14:13:25.107Z,0.80
2023-03-27T14:15:57.977Z,0.70
2023-03-27T14:18:30.406Z,1.80
2023-03-27T14:21:00.663Z,4.77
2023-03-27T14:30:57.897Z,0.87
2023-03-27T14:33:24.798Z,1.83
2023-03-27T14:35:56.444Z,0.90
2023-03-27T14:38:29.171Z,0.70
2023-03-27T14:40:56.904Z,0.90
2023-03-27T14:43:25.970Z,2.00
2023-03-27T14:45:53.616Z,1.30
2023-03-27T14:48:39.984Z,0.90
2023-03-27T14:51:09.469Z,0.90
2023-03-27T14:53:36.923Z,1.30
2023-03-27T14:56:05.987Z,1.20
2023-03-27T14:58:32.501Z,0.60
2023-03-27T15:04:40.345Z,1.47
2023-03-27T15:07:18.826Z,3.10
2023-03-27T15:09:45.949Z,1.30
2023-03-27T15:12:12.401Z,1.13
2023-03-27T15:18:32.981Z,1.60
2023-03-27T15:21:05.166Z,1.13
2023-03-27T15:23:36.756Z,1.00
2023-03-27T15:26:12.044Z,0.97
2023-03-27T15:28:41.644Z,1.33
2023-03-27T15:31:08.643Z,1.67
2023-03-27T15:33:42.582Z,0.80
2023-03-27T15:36:11.326Z,1.60
2023-03-27T15:38:38.974Z,1.40
2023-03-27T15:41:17.286Z,1.50
2023-03-27T15:43:44.114Z,2.70
2023-03-27T15:46:13.686Z,0.80
2023-03-27T15:48:44.187Z,1.10
2023-03-27T15:51:12.226Z,1.10
2023-03-27T15:53:38.826Z,0.80
2023-03-27T15:56:26.121Z,2.87
2023-03-27T15:59:00.237Z,1.20
2023-03-27T16:01:26.766Z,2.20
2023-03-27T16:03:56.150Z,1.30
2023-03-27T16:06:26.771Z,1.53
2023-03-27T16:08:53.691Z,1.40
2023-03-27T16:11:33.688Z,1.30
2023-03-27T16:14:00.557Z,1.30
2023-03-27T16:16:28.638Z,1.33
2023-03-27T16:18:59.226Z,1.57
2023-03-27T16:21:26.983Z,2.00
2023-03-27T16:23:53.592Z,2.17
2023-03-27T16:26:25.095Z,1.90
2023-03-27T16:28:52.296Z,1.60
2023-03-27T16:31:19.478Z,1.53
2023-03-27T16:33:46.345Z,1.53
2023-03-27T16:36:14.146Z,1.50
2023-03-27T16:38:42.045Z,1.60
2023-03-27T16:41:13.405Z,1.63
2023-03-27T16:43:40.311Z,1.60
2023-03-27T16:46:07.249Z,1.20
2023-03-27T16:48:33.755Z,1.10
2023-03-27T16:51:00.409Z,1.10
2023-03-27T16:53:26.925Z,1.10
2023-03-27T16:55:55.875Z,1.23
2023-03-27T16:58:22.668Z,1.20
2023-03-27T17:00:49.138Z,1.20
2023-03-27T17:03:16.461Z,1.30
2023-03-27T17:05:44.149Z,1.83
2023-03-27T17:08:11.124Z,1.43
2023-03-27T17:10:37.641Z,2.20
2023-03-27T17:13:04.198Z,1.33
2023-03-27T17:15:30.713Z,1.70
2023-03-27T17:18:15.687Z,1.70
2023-03-27T17:20:42.171Z,1.83
2023-03-27T17:23:09.117Z,1.90
2023-03-27T17:25:36.396Z,1.80
2023-03-27T17:28:03.182Z,1.90
2023-03-27T17:30:38.496Z,2.40
2023-03-27T17:33:07.977Z,2.63
2023-03-27T17:35:34.535Z,3.33
2023-03-27T17:38:01.171Z,3.10
2023-03-27T17:40:27.730Z,4.87
2023-03-27T17:42:54.191Z,4.30
2023-03-27T17:45:21.405Z,7.00
2023-03-27T17:47:47.916Z,10.43
2023-03-27T17:50:14.400Z,12.03
2023-03-27T17:52:41.042Z,13.17
2023-03-27T17:55:08.174Z,11.00
2023-03-27T17:57:37.975Z,8.50
2023-03-27T18:00:09.609Z,7.20
2023-03-27T18:02:36.175Z,8.50
2023-03-27T18:05:02.797Z,9.77
2023-03-27T18:07:30.660Z,8.17
2023-03-27T18:09:57.176Z,10.20
2023-03-27T18:12:23.758Z,9.27
2023-03-27T18:14:51.930Z,8.27
2023-03-27T18:17:21.059Z,6.53
2023-03-27T18:20:07.020Z,7.20
2023-03-27T18:22:33.450Z,15.43
2023-03-27T18:24:59.965Z,11.93
2023-03-27T18:27:26.475Z,17.30
2023-03-27T18:29:52.948Z,9.87
2023-03-27T18:32:20.722Z,8.73
2023-03-27T18:34:47.282Z,8.33
2023-03-27T18:37:14.998Z,5.27
2023-03-27T18:39:41.633Z,5.27
2023-03-27T18:42:08.886Z,5.40
2023-03-27T18:44:38.015Z,6.07
2023-03-27T18:47:09.285Z,5.40
2023-03-27T18:49:36.802Z,4.30
2023-03-27T18:52:03.341Z,6.33
2023-03-27T18:54:29.851Z,7.70
2023-03-27T18:56:56.445Z,6.97
2023-03-27T18:59:23.026Z,7.93
2023-03-27T19:01:49.979Z,8.27
2023-03-27T19:04:17.366Z,9.30
2023-03-27T19:06:44.085Z,8.90
2023-03-27T19:09:10.651Z,9.73
2023-03-27T19:16:15.277Z,13.87
2023-03-27T19:18:42.145Z,20.20
2023-03-27T19:21:08.640Z,17.60
2023-03-27T19:23:35.309Z,10.40
2023-03-27T19:26:09.216Z,11.70
2023-03-27T19:32:16.718Z,12.10
2023-03-27T19:34:43.592Z,11.63
2023-03-27T19:37:10.842Z,12.80
2023-03-27T19:39:37.376Z,11.37
2023-03-27T19:42:03.903Z,9.00
2023-03-27T19:44:31.660Z,7.73
2023-03-27T19:46:59.081Z,9.47
2023-03-27T19:57:18.059Z,17.27
2023-03-27T19:59:44.622Z,19.27
2023-03-27T20:02:11.949Z,19.60
2023-03-27T20:04:39.021Z,20.53
2023-03-27T20:07:07.150Z,18.50
2023-03-27T20:09:34.241Z,14.33
2023-03-27T20:12:01.407Z,11.27
2023-03-27T20:14:28.026Z,9.23
2023-03-27T20:17:12.359Z,6.73
2023-03-27T20:19:49.291Z,5.73
2023-03-27T20:22:20.666Z,7.20
2023-03-27T20:24:47.820Z,12.87
2023-03-27T20:27:14.652Z,16.63
2023-03-27T20:29:41.390Z,14.40
2023-03-27T20:32:26.597Z,6.27
2023-03-27T20:34:53.313Z,7.27
2023-03-27T20:37:20.048Z,6.40
2023-03-27T20:39:49.466Z,10.40
2023-03-27T20:42:17.029Z,13.73
2023-03-27T20:44:44.415Z,13.63
2023-03-27T20:47:15.267Z,14.60
2023-03-27T20:49:45.308Z,20.73
2023-03-27T20:52:15.485Z,22.67
2023-03-27T20:54:42.276Z,22.97
2023-03-27T20:57:08.926Z,17.60
2023-03-27T20:59:35.522Z,13.93
2023-03-27T21:02:02.263Z,7.53
2023-03-27T21:04:31.614Z,6.00
2023-03-27T21:06:58.517Z,4.73
2023-03-27T21:09:26.033Z,4.10
2023-03-27T21:11:53.546Z,3.87
2023-03-27T21:14:20.325Z,3.90
2023-03-27T21:16:46.930Z,4.37
2023-03-27T21:19:13.461Z,4.80
2023-03-27T21:21:39.964Z,4.50
2023-03-27T21:24:06.508Z,7.73
2023-03-27T21:26:33.482Z,11.50
2023-03-27T21:28:59.976Z,12.73
2023-03-27T21:31:26.430Z,13.60
2023-03-27T21:33:52.938Z,13.47
2023-03-27T21:36:19.496Z,7.70
2023-03-27T21:38:46.108Z,5.20
2023-03-27T21:41:14.173Z,4.83
2023-03-27T21:43:40.776Z,4.50
2023-03-27T21:46:07.234Z,5.80
2023-03-27T21:48:33.792Z,11.77
2023-03-27T21:51:01.227Z,10.50
2023-03-27T21:53:27.796Z,10.50
2023-03-27T21:55:54.292Z,9.77
2023-03-27T21:58:23.984Z,10.13
2023-03-27T22:00:50.652Z,7.40
2023-03-27T22:03:17.115Z,4.77
2023-03-27T22:05:49.177Z,5.63
2023-03-27T22:08:21.670Z,9.13
2023-03-27T22:10:48.210Z,8.60
2023-03-27T22:13:14.660Z,8.37
2023-03-27T22:15:41.304Z,8.30
2023-03-27T22:18:07.931Z,9.30
2023-03-27T22:20:34.420Z,9.17
2023-03-27T22:23:00.900Z,8.97
2023-03-27T22:25:27.652Z,8.70
2023-03-27T22:27:54.090Z,9.13
2023-03-27T22:30:20.542Z,8.27
2023-03-27T22:32:47.006Z,7.63
2023-03-27T22:35:13.440Z,7.97
2023-03-27T22:37:40.410Z,7.23
2023-03-27T22:40:07.391Z,6.70
2023-03-27T22:42:33.843Z,6.67
2023-03-27T22:45:00.350Z,10.83
2023-03-27T22:47:27.429Z,12.80
2023-03-27T22:50:09.372Z,10.57
2023-03-27T22:52:35.967Z,8.07
2023-03-27T22:55:02.527Z,6.30
2023-03-27T22:57:29.017Z,5.20
2023-03-27T22:59:55.552Z,4.80
2023-03-27T23:02:22.078Z,4.53
2023-03-27T23:04:48.557Z,3.90
2023-03-27T23:07:15.457Z,4.00
2023-03-27T23:09:42.000Z,4.27
2023-03-27T23:12:08.468Z,3.93
2023-03-27T23:14:34.927Z,3.73
2023-03-27T23:17:01.476Z,5.00
2023-03-27T23:19:27.999Z,4.67
2023-03-27T23:21:54.525Z,4.30
2023-03-27T23:24:21.081Z,4.23
2023-03-27T23:26:47.580Z,4.30
2023-03-27T23:29:14.058Z,4.20
2023-03-27T23:31:40.569Z,4.13
2023-03-27T23:34:07.066Z,3.87
2023-03-27T23:36:33.548Z,4.00
2023-03-27T23:38:59.982Z,3.73
2023-03-27T23:41:26.472Z,4.40
2023-03-27T23:43:54.038Z,4.40
2023-03-27T23:46:20.577Z,5.20
2023-03-27T23:48:47.244Z,5.33
2023-03-27T23:51:15.384Z,4.87
2023-03-27T23:53:42.197Z,5.17
2023-03-27T23:56:08.953Z,5.20
2023-03-27T23:58:37.471Z,5.80
